Time;durP1;ratioP1;P1;durP2;ratioP2;P2;SDS_P1;SDS_P2;PMS_P1;PMS_P2;Temp;Humidity;BMP_temperature;BMP_pressure;BME280_temperature;BME280_humidity;BME280_pressure;Samples;Min_cycle;Max_cycle;Signal;HPM_P1;HPM_P2
2024/02/28 00:00:55;;;;;;;41.40;26.98;;;2.60;99.90;;;;;;2076542;28;20434;-71
2024/02/28 00:01:56;;;;;;;38.83;25.77;;;2.60;99.90;;;;;;2077990;28;20888;-71
2024/02/28 00:02:56;;;;;;;37.40;23.23;;;2.60;99.90;;;;;;2077674;28;20117;-71
2024/02/28 00:03:57;;;;;;;36.20;23.13;;;2.60;99.90;;;;;;2080320;28;20029;-71
2024/02/28 00:05:00;;;;;;;38.53;25.30;;;2.60;99.90;;;;;;2073696;28;20478;-71
2024/02/28 00:06:01;;;;;;;44.33;26.40;;;2.60;99.90;;;;;;2076719;28;20022;-70
2024/02/28 00:07:01;;;;;;;39.17;24.45;;;2.60;99.90;;;;;;2074568;28;20513;-70
2024/02/28 00:08:02;;;;;;;42.22;26.00;;;2.60;99.90;;;;;;2073876;28;20105;-70
2024/02/28 00:09:03;;;;;;;38.35;24.80;;;2.60;99.90;;;;;;2077695;28;20033;-71
2024/02/28 00:10:03;;;;;;;40.05;25.08;;;2.50;99.90;;;;;;2077681;28;20021;-70
2024/02/28 00:11:07;;;;;;;46.60;28.73;;;2.50;99.90;;;;;;2075833;28;20934;-72
2024/02/28 00:12:07;;;;;;;40.20;26.10;;;2.50;99.90;;;;;;2078827;28;20034;-71
2024/02/28 00:13:08;;;;;;;38.78;24.75;;;2.50;99.90;;;;;;2075393;28;20026;-71
2024/02/28 00:14:09;;;;;;;37.90;24.33;;;2.50;99.90;;;;;;2078655;28;20022;-71
2024/02/28 00:15:10;;;;;;;42.22;25.92;;;2.50;99.90;;;;;;2076907;28;20022;-71
2024/02/28 00:16:11;;;;;;;43.00;26.05;;;2.50;99.90;;;;;;2077166;28;20108;-71
2024/02/28 00:17:13;;;;;;;39.20;25.42;;;2.50;99.90;;;;;;2079455;28;20040;-72
2024/02/28 00:18:13;;;;;;;38.78;25.38;;;2.50;99.90;;;;;;2075867;28;20028;-70
2024/02/28 00:19:14;;;;;;;39.88;25.63;;;2.50;99.90;;;;;;2069969;28;20041;-71
2024/02/28 00:20:15;;;;;;;42.35;26.50;;;2.50;99.90;;;;;;2069813;28;20021;-71
2024/02/28 00:21:18;;;;;;;41.85;26.67;;;2.40;99.90;;;;;;2076207;28;20385;-70
2024/02/28 00:22:19;;;;;;;46.85;28.92;;;2.40;99.90;;;;;;2076488;28;20501;-72
2024/02/28 00:23:19;;;;;;;38.30;23.60;;;2.40;99.90;;;;;;2079022;28;20034;-70
2024/02/28 00:24:20;;;;;;;43.17;27.40;;;2.40;99.90;;;;;;2076975;28;20108;-71
2024/02/28 00:25:20;;;;;;;41.05;26.70;;;2.40;99.90;;;;;;2079420;28;20025;-71
2024/02/28 00:26:21;;;;;;;41.97;26.30;;;2.40;99.90;;;;;;2077567;28;20022;-71
2024/02/28 00:27:21;;;;;;;41.97;24.90;;;2.40;99.90;;;;;;2075502;28;20054;-71
2024/02/28 00:28:22;;;;;;;39.95;25.23;;;2.40;99.90;;;;;;2077940;28;20658;-71
2024/02/28 00:29:22;;;;;;;40.83;25.27;;;2.40;99.90;;;;;;2075653;28;20076;-71
2024/02/28 00:30:23;;;;;;;37.78;23.70;;;2.40;99.90;;;;;;2074937;28;20025;-71
2024/02/28 00:31:24;;;;;;;38.13;24.67;;;2.40;99.90;;;;;;2076673;28;20014;-71
2024/02/28 00:32:24;;;;;;;41.00;25.17;;;2.30;99.90;;;;;;2076823;28;20854;-71
2024/02/28 00:33:25;;;;;;;40.20;26.95;;;2.40;99.90;;;;;;2078226;28;20025;-71
2024/02/28 00:34:25;;;;;;;39.97;26.25;;;2.30;99.90;;;;;;2077108;28;20025;-70
2024/02/28 00:35:26;;;;;;;45.78;26.98;;;2.30;99.90;;;;;;2076473;28;20072;-72
2024/02/28 00:36:26;;;;;;;47.22;27.33;;;2.30;99.90;;;;;;2067297;28;20023;-71
2024/02/28 00:37:27;;;;;;;42.70;26.63;;;2.30;99.90;;;;;;2069105;28;20026;-72
2024/02/28 00:38:27;;;;;;;42.83;27.02;;;2.30;99.90;;;;;;2076144;28;20037;-71
2024/02/28 00:39:28;;;;;;;44.92;28.60;;;2.30;99.90;;;;;;2076410;28;20367;-71
2024/02/28 00:40:29;;;;;;;42.67;25.65;;;2.30;99.90;;;;;;2076059;28;20512;-72
2024/02/28 00:41:29;;;;;;;38.47;24.33;;;2.30;99.90;;;;;;2076297;28;20029;-71
2024/02/28 00:42:30;;;;;;;41.20;25.17;;;2.30;99.90;;;;;;2067311;28;20053;-71
2024/02/28 00:43:34;;;;;;;40.13;24.90;;;2.30;99.90;;;;;;2066379;28;20038;-72
2024/02/28 00:44:34;;;;;;;40.70;24.98;;;2.30;99.90;;;;;;2079027;28;20038;-71
2024/02/28 00:45:35;;;;;;;39.78;24.95;;;2.30;99.90;;;;;;2080014;28;20079;-72
2024/02/28 00:46:36;;;;;;;40.92;24.50;;;2.30;99.90;;;;;;2074083;28;20829;-70
2024/02/28 00:47:37;;;;;;;43.15;26.67;;;2.20;99.90;;;;;;2076661;28;20096;-71
2024/02/28 00:48:39;;;;;;;40.28;25.13;;;2.20;99.90;;;;;;2074726;28;20038;-72
2024/02/28 00:49:40;;;;;;;41.60;26.80;;;2.20;99.90;;;;;;2076656;28;20184;-72
2024/02/28 00:50:40;;;;;;;41.60;26.10;;;2.20;99.90;;;;;;2076164;28;20040;-69
2024/02/28 00:51:41;;;;;;;41.15;25.38;;;2.30;99.90;;;;;;2072889;28;20520;-71
2024/02/28 00:52:41;;;;;;;38.65;24.65;;;2.20;99.90;;;;;;2075933;28;20025;-71
2024/02/28 00:53:43;;;;;;;38.90;24.65;;;2.20;99.90;;;;;;2075054;28;20108;-70
2024/02/28 00:54:43;;;;;;;38.35;25.20;;;2.20;99.90;;;;;;2075223;28;20033;-72
2024/02/28 00:55:44;;;;;;;38.65;24.40;;;2.20;99.90;;;;;;2076560;28;20029;-71
2024/02/28 00:56:44;;;;;;;42.55;26.98;;;2.20;99.90;;;;;;2074060;28;20053;-70
2024/02/28 00:57:45;;;;;;;39.90;24.85;;;2.20;99.90;;;;;;2074907;28;20034;-72
2024/02/28 00:58:45;;;;;;;41.75;24.80;;;2.20;99.90;;;;;;2077175;28;20028;-71
2024/02/28 00:59:46;;;;;;;40.60;25.10;;;2.20;99.90;;;;;;2075618;28;20056;-71
2024/02/28 01:00:48;;;;;;;44.65;27.27;;;2.10;99.90;;;;;;2075422;28;20026;-72
2024/02/28 01:01:49;;;;;;;42.05;24.92;;;2.10;99.90;;;;;;2076832;28;20084;-72
2024/02/28 01:02:49;;;;;;;43.53;26.88;;;2.10;99.90;;;;;;2075552;28;20470;-71
2024/02/28 01:03:50;;;;;;;42.13;26.63;;;2.10;99.90;;;;;;2076174;28;20026;-72
2024/02/28 01:04:50;;;;;;;41.60;25.98;;;2.10;99.90;;;;;;2076063;28;20033;-71
2024/02/28 01:05:51;;;;;;;43.95;26.38;;;2.10;99.90;;;;;;2075708;28;20065;-72
2024/02/28 01:06:52;;;;;;;42.35;25.02;;;2.20;99.90;;;;;;2077558;28;20061;-72
2024/02/28 01:07:52;;;;;;;40.17;25.20;;;2.20;99.90;;;;;;2075815;28;20026;-72
2024/02/28 01:08:53;;;;;;;41.22;25.45;;;2.10;99.90;;;;;;2076516;28;20041;-71
2024/02/28 01:09:53;;;;;;;38.28;23.90;;;2.10;99.90;;;;;;2076519;28;20100;-71
2024/02/28 01:10:54;;;;;;;42.50;25.58;;;2.10;99.90;;;;;;2075201;28;20025;-72
2024/02/28 01:11:54;;;;;;;44.65;28.38;;;2.10;99.90;;;;;;2079140;28;20018;-72
2024/02/28 01:12:55;;;;;;;39.05;24.08;;;2.10;99.90;;;;;;2074925;28;20033;-71
2024/02/28 01:13:55;;;;;;;41.55;25.35;;;2.10;99.90;;;;;;2076275;28;20046;-71
2024/02/28 01:14:56;;;;;;;44.20;27.55;;;2.10;99.90;;;;;;2075684;28;20033;-71
2024/02/28 01:15:59;;;;;;;41.08;25.58;;;2.10;99.90;;;;;;2073938;28;20030;-72
2024/02/28 01:16:59;;;;;;;41.70;27.02;;;2.10;99.90;;;;;;2073896;28;20069;-72
2024/02/28 01:18:00;;;;;;;43.75;26.35;;;2.10;99.90;;;;;;2075586;28;20036;-71
2024/02/28 01:19:00;;;;;;;43.95;26.42;;;2.10;99.90;;;;;;2076762;28;20401;-72
2024/02/28 01:20:01;;;;;;;47.58;27.52;;;2.10;99.90;;;;;;2076100;28;20614;-71
2024/02/28 01:21:02;;;;;;;41.67;26.90;;;2.10;99.90;;;;;;2076656;28;20068;-71
2024/02/28 01:22:05;;;;;;;45.70;27.90;;;2.10;99.90;;;;;;2079010;28;20025;-70
2024/02/28 01:23:05;;;;;;;43.83;26.15;;;2.00;99.90;;;;;;2076613;28;20044;-72
2024/02/28 01:24:06;;;;;;;39.33;24.48;;;2.10;99.90;;;;;;2076056;28;20032;-73
2024/02/28 01:25:07;;;;;;;43.33;25.73;;;2.10;99.90;;;;;;2077741;28;20237;-72
2024/02/28 01:26:07;;;;;;;42.97;24.98;;;2.00;99.90;;;;;;2076801;28;20033;-72
2024/02/28 01:27:08;;;;;;;42.80;25.38;;;2.00;99.90;;;;;;2076399;28;20685;-72
2024/02/28 01:28:11;;;;;;;38.80;24.13;;;2.00;99.90;;;;;;2075909;28;20054;-72
2024/02/28 01:29:12;;;;;;;40.10;26.15;;;2.00;99.90;;;;;;2075275;28;20053;-71
2024/02/28 01:30:13;;;;;;;47.13;27.67;;;2.00;99.90;;;;;;2075670;28;20025;-72
2024/02/28 01:31:13;;;;;;;41.67;24.92;;;2.00;99.90;;;;;;2076129;28;20149;-72
2024/02/28 01:32:14;;;;;;;44.60;26.88;;;2.00;99.90;;;;;;2074201;28;20112;-71
2024/02/28 01:33:14;;;;;;;38.97;24.58;;;2.00;99.90;;;;;;2074295;28;20029;-72
2024/02/28 01:34:15;;;;;;;43.72;25.60;;;2.00;99.90;;;;;;2076361;28;20021;-72
2024/02/28 01:35:15;;;;;;;39.60;23.75;;;2.00;99.90;;;;;;2077482;28;20362;-70
2024/02/28 01:36:16;;;;;;;39.38;24.10;;;2.00;99.90;;;;;;2074717;28;20057;-72
2024/02/28 01:37:16;;;;;;;40.42;25.52;;;2.00;99.90;;;;;;2075743;28;20150;-70
2024/02/28 01:38:17;;;;;;;36.75;23.02;;;2.00;99.90;;;;;;2074015;28;20049;-71
2024/02/28 01:39:18;;;;;;;46.78;26.30;;;2.00;99.90;;;;;;2075498;28;20040;-72
2024/02/28 01:40:18;;;;;;;44.97;26.60;;;2.00;99.90;;;;;;2075552;28;20388;-71
2024/02/28 01:41:19;;;;;;;41.78;25.27;;;1.90;99.90;;;;;;2074705;28;20084;-72
2024/02/28 01:42:19;;;;;;;45.30;26.70;;;1.90;99.90;;;;;;2078004;28;20026;-72
2024/02/28 01:43:20;;;;;;;48.08;27.90;;;2.00;99.90;;;;;;2074885;28;20025;-71
2024/02/28 01:44:21;;;;;;;43.58;26.67;;;1.90;99.90;;;;;;2068385;28;20101;-72
2024/02/28 01:45:21;;;;;;;48.88;28.45;;;1.90;99.90;;;;;;2066137;28;20022;-69
2024/02/28 01:46:29;;;;;;;46.47;27.85;;;1.90;99.90;;;;;;2076112;28;20026;-72
2024/02/28 01:47:30;;;;;;;46.85;28.73;;;1.90;99.90;;;;;;2077045;28;20502;-71
2024/02/28 01:48:31;;;;;;;45.63;27.45;;;1.90;99.90;;;;;;2074173;28;20360;-71
2024/02/28 01:49:32;;;;;;;44.15;26.20;;;1.90;99.90;;;;;;2077460;28;20526;-72
2024/02/28 01:50:33;;;;;;;44.53;26.95;;;1.90;99.90;;;;;;2077295;28;20026;-72
2024/02/28 01:51:34;;;;;;;46.35;27.25;;;1.90;99.90;;;;;;2075364;28;20084;-72
2024/02/28 01:52:37;;;;;;;41.75;25.70;;;1.90;99.90;;;;;;2075444;28;20383;-71
2024/02/28 01:53:37;;;;;;;46.75;26.33;;;1.90;99.90;;;;;;2076720;28;20083;-71
2024/02/28 01:54:39;;;;;;;41.25;24.58;;;1.90;99.90;;;;;;2074768;28;20026;-72
2024/02/28 01:55:40;;;;;;;41.60;25.63;;;1.80;99.90;;;;;;2069822;28;20041;-71
2024/02/28 01:56:44;;;;;;;41.22;25.38;;;1.80;99.90;;;;;;2071554;28;20068;-71
2024/02/28 01:57:45;;;;;;;41.85;24.88;;;1.90;99.90;;;;;;2077825;28;20026;-72
2024/02/28 01:58:47;;;;;;;42.40;25.33;;;1.80;99.90;;;;;;2075722;28;20498;-69
2024/02/28 01:59:48;;;;;;;41.15;25.25;;;1.80;99.90;;;;;;2075538;28;20088;-71
2024/02/28 02:00:49;;;;;;;45.38;26.65;;;1.90;99.90;;;;;;2077788;28;20038;-70
2024/02/28 02:01:50;;;;;;;39.63;24.92;;;1.90;99.90;;;;;;2075186;28;20037;-72
2024/02/28 02:02:51;;;;;;;41.65;25.15;;;1.80;99.90;;;;;;2077138;28;20061;-72
2024/02/28 02:03:52;;;;;;;42.35;25.05;;;1.90;99.90;;;;;;2065208;28;20038;-71
2024/02/28 02:04:54;;;;;;;44.50;26.60;;;1.80;99.90;;;;;;2065729;28;20026;-71
2024/02/28 02:05:54;;;;;;;36.80;24.05;;;1.80;99.90;;;;;;2076973;28;20044;-72
2024/02/28 02:06:58;;;;;;;42.92;26.55;;;1.80;99.90;;;;;;2074908;28;20505;-72
2024/02/28 02:07:59;;;;;;;41.35;25.60;;;1.80;99.90;;;;;;2075175;28;20394;-69
2024/02/28 02:09:01;;;;;;;41.03;25.13;;;1.80;99.90;;;;;;2076584;28;20034;-72
2024/02/28 02:10:02;;;;;;;41.60;25.40;;;1.80;99.90;;;;;;2074709;28;20030;-71
2024/02/28 02:11:03;;;;;;;50.85;28.55;;;1.80;99.90;;;;;;2076344;28;20494;-70
2024/02/28 02:12:04;;;;;;;48.80;29.52;;;1.80;99.90;;;;;;2073637;28;20434;-72
2024/02/28 02:13:07;;;;;;;47.70;27.67;;;1.80;99.90;;;;;;2077221;28;20124;-71
2024/02/28 02:14:08;;;;;;;46.60;29.02;;;1.80;99.90;;;;;;2075459;28;20085;-72
2024/02/28 02:15:09;;;;;;;46.05;28.70;;;1.80;99.90;;;;;;2076592;28;20067;-72
2024/02/28 02:16:09;;;;;;;39.00;25.38;;;1.80;99.90;;;;;;2075959;28;20072;-72
2024/02/28 02:17:10;;;;;;;43.50;27.00;;;1.80;99.90;;;;;;2075636;28;20022;-71
2024/02/28 02:18:10;;;;;;;42.65;25.88;;;1.80;99.90;;;;;;2074851;28;20041;-71
2024/02/28 02:19:11;;;;;;;50.17;28.65;;;1.80;99.90;;;;;;2073651;28;20033;-71
2024/02/28 02:20:15;;;;;;;41.53;25.25;;;1.80;99.90;;;;;;2074808;28;20438;-71
2024/02/28 02:21:23;;;;;;;45.35;28.48;;;1.80;99.90;;;;;;2073340;28;20037;-71
2024/02/28 02:22:29;;;;;;;46.42;28.27;;;1.80;99.90;;;;;;2075741;28;20242;-71
2024/02/28 02:23:30;;;;;;;44.40;25.92;;;1.70;99.90;;;;;;2076101;28;20017;-71
2024/02/28 02:24:31;;;;;;;40.72;25.45;;;1.80;99.90;;;;;;2077096;28;20022;-72
2024/02/28 02:25:31;;;;;;;43.92;26.33;;;1.70;99.90;;;;;;2068304;28;20021;-71
2024/02/28 02:26:32;;;;;;;44.80;26.95;;;1.80;99.90;;;;;;2068048;28;20056;-72
2024/02/28 02:27:32;;;;;;;38.70;24.17;;;1.80;99.90;;;;;;2074809;28;20026;-72
2024/02/28 02:28:33;;;;;;;41.55;24.77;;;1.80;99.90;;;;;;2071648;28;20030;-71
2024/02/28 02:29:33;;;;;;;45.75;27.55;;;1.70;99.90;;;;;;2073787;28;20094;-72
2024/02/28 02:30:34;;;;;;;45.30;28.08;;;1.80;99.90;;;;;;2073961;28;20022;-69
2024/02/28 02:31:34;;;;;;;48.42;28.30;;;1.80;99.90;;;;;;2075735;28;20514;-72
2024/02/28 02:32:35;;;;;;;43.05;27.90;;;1.80;99.90;;;;;;2074919;28;20109;-72
2024/02/28 02:33:35;;;;;;;45.42;27.15;;;1.80;99.90;;;;;;2078126;28;20025;-72
2024/02/28 02:34:36;;;;;;;45.33;27.90;;;1.80;99.90;;;;;;2077453;28;20032;-72
2024/02/28 02:35:37;;;;;;;52.70;29.88;;;1.80;99.90;;;;;;2068623;28;20031;-72
2024/02/28 02:36:37;;;;;;;47.97;28.90;;;1.80;99.90;;;;;;2067506;28;20026;-70
2024/02/28 02:37:42;;;;;;;52.42;31.17;;;1.80;99.90;;;;;;2076247;28;20041;-72
2024/02/28 02:38:43;;;;;;;53.25;30.92;;;1.80;99.90;;;;;;2074792;28;20033;-71
2024/02/28 02:39:43;;;;;;;52.15;31.95;;;1.80;99.90;;;;;;2075937;28;20034;-72
2024/02/28 02:40:48;;;;;;;56.10;31.40;;;1.80;99.90;;;;;;2075407;28;20061;-72
2024/02/28 02:41:49;;;;;;;58.13;33.55;;;1.80;99.90;;;;;;2074390;28;20029;-72
2024/02/28 02:42:50;;;;;;;60.30;34.55;;;1.90;99.90;;;;;;2075203;28;20034;-72
2024/02/28 02:43:51;;;;;;;62.78;34.25;;;1.90;99.90;;;;;;2075350;28;20552;-72
2024/02/28 02:44:51;;;;;;;62.53;35.92;;;1.90;99.90;;;;;;2075778;28;20458;-71
2024/02/28 02:45:52;;;;;;;56.88;33.67;;;1.90;99.90;;;;;;2077440;28;20028;-68
2024/02/28 02:46:52;;;;;;;63.80;36.20;;;1.90;99.90;;;;;;2068124;28;20034;-72
2024/02/28 02:47:53;;;;;;;64.85;36.58;;;2.00;99.90;;;;;;2068108;28;20037;-70
2024/02/28 02:48:53;;;;;;;70.45;38.40;;;2.00;99.90;;;;;;2072954;28;20098;-72
2024/02/28 02:49:54;;;;;;;65.43;36.15;;;2.00;99.90;;;;;;2077241;28;20870;-71
2024/02/28 02:50:54;;;;;;;79.35;40.47;;;2.10;99.90;;;;;;2075678;28;20034;-69
2024/02/28 02:51:55;;;;;;;76.78;38.88;;;2.00;99.90;;;;;;2077254;28;20076;-72
2024/02/28 02:52:55;;;;;;;74.40;40.28;;;2.10;99.90;;;;;;2073127;28;20471;-71
2024/02/28 02:53:56;;;;;;;81.78;41.78;;;2.10;99.90;;;;;;2070208;28;20471;-71
2024/02/28 02:54:56;;;;;;;84.63;42.08;;;2.10;99.90;;;;;;2076726;28;20084;-72
2024/02/28 02:55:57;;;;;;;95.07;44.25;;;2.20;99.90;;;;;;2077912;28;20097;-69
2024/02/28 02:56:57;;;;;;;93.30;44.25;;;2.20;99.90;;;;;;2077050;28;20086;-72
2024/02/28 02:57:58;;;;;;;91.55;44.42;;;2.20;99.90;;;;;;2076894;28;20105;-71
2024/02/28 02:58:58;;;;;;;96.03;47.25;;;2.30;99.90;;;;;;2075299;28;20459;-71
2024/02/28 02:59:59;;;;;;;94.50;44.80;;;2.30;99.90;;;;;;2077308;28;20430;-71
2024/02/28 03:00:59;;;;;;;94.55;47.03;;;2.30;99.90;;;;;;2078273;28;20037;-72
2024/02/28 03:02:00;;;;;;;90.50;43.85;;;2.30;99.90;;;;;;2075559;28;20021;-71
2024/02/28 03:03:00;;;;;;;103.35;48.22;;;2.40;99.90;;;;;;2076427;28;20030;-71
2024/02/28 03:04:01;;;;;;;107.60;50.00;;;2.40;99.90;;;;;;2075267;28;20069;-70
2024/02/28 03:05:01;;;;;;;113.57;52.22;;;2.40;99.90;;;;;;2077061;28;20041;-72
2024/02/28 03:06:02;;;;;;;112.07;52.78;;;2.40;99.90;;;;;;2075844;28;20479;-72
2024/02/28 03:07:03;;;;;;;112.63;50.35;;;2.50;99.90;;;;;;2076023;28;20030;-72
2024/02/28 03:08:04;;;;;;;116.38;52.70;;;2.50;99.90;;;;;;2078119;28;20087;-72
2024/02/28 03:09:04;;;;;;;120.60;53.80;;;2.50;99.90;;;;;;2077682;28;20030;-71
2024/02/28 03:10:05;;;;;;;113.03;50.72;;;2.60;99.90;;;;;;2077125;28;20127;-72
2024/02/28 03:11:08;;;;;;;120.90;53.50;;;2.60;99.90;;;;;;2076531;28;20079;-72
2024/02/28 03:12:09;;;;;;;111.72;50.35;;;2.60;99.90;;;;;;2078960;28;20033;-72
2024/02/28 03:13:09;;;;;;;109.30;51.22;;;2.70;99.90;;;;;;2074361;28;20034;-72
2024/02/28 03:14:10;;;;;;;118.00;52.90;;;2.70;99.90;;;;;;2076121;28;20033;-70
2024/02/28 03:15:10;;;;;;;116.00;50.90;;;2.70;99.90;;;;;;2076788;28;20033;-72
2024/02/28 03:16:11;;;;;;;108.93;48.85;;;2.80;99.90;;;;;;2076756;28;20797;-72
2024/02/28 03:17:11;;;;;;;115.55;51.35;;;2.80;99.90;;;;;;2076230;28;20548;-71
2024/02/28 03:18:12;;;;;;;110.30;51.80;;;2.80;99.90;;;;;;2077757;28;20026;-72
2024/02/28 03:19:12;;;;;;;124.50;53.70;;;2.90;99.90;;;;;;2075799;28;20596;-72
2024/02/28 03:20:14;;;;;;;118.70;52.90;;;2.90;99.90;;;;;;2078721;28;20103;-72
2024/02/28 03:21:14;;;;;;;113.88;52.55;;;2.90;99.90;;;;;;2076853;28;20386;-72
2024/02/28 03:22:15;;;;;;;110.07;51.60;;;2.90;99.90;;;;;;2076925;28;20036;-72
2024/02/28 03:23:16;;;;;;;121.95;53.72;;;3.00;99.90;;;;;;2077882;28;20029;-72
2024/02/28 03:24:17;;;;;;;109.55;52.40;;;3.00;99.90;;;;;;2078280;28;20026;-72
2024/02/28 03:25:17;;;;;;;105.70;51.25;;;3.00;99.90;;;;;;2077650;28;20036;-72
2024/02/28 03:26:18;;;;;;;104.28;49.25;;;3.00;99.90;;;;;;2076626;28;20496;-72
2024/02/28 03:27:18;;;;;;;109.88;51.50;;;3.10;99.90;;;;;;2076820;28;20374;-72
2024/02/28 03:28:19;;;;;;;109.40;51.58;;;3.10;99.90;;;;;;2075780;28;20021;-73
2024/02/28 03:29:19;;;;;;;107.45;50.75;;;3.10;99.90;;;;;;2078039;28;20022;-72
2024/02/28 03:30:20;;;;;;;111.28;51.50;;;3.20;99.90;;;;;;2076202;28;20033;-72
2024/02/28 03:31:20;;;;;;;111.40;51.90;;;3.20;99.90;;;;;;2070211;28;20025;-72
2024/02/28 03:32:21;;;;;;;114.93;53.40;;;3.20;99.90;;;;;;2067759;28;20090;-72
2024/02/28 03:33:22;;;;;;;107.90;52.55;;;3.20;99.90;;;;;;2078307;28;20028;-71
2024/02/28 03:34:22;;;;;;;117.35;51.42;;;3.20;99.90;;;;;;2077440;28;20417;-72
2024/02/28 03:35:23;;;;;;;118.45;55.28;;;3.30;99.90;;;;;;2076113;28;20108;-72
2024/02/28 03:36:23;;;;;;;137.35;54.80;;;3.30;99.90;;;;;;2075901;28;20153;-72
2024/02/28 03:37:24;;;;;;;117.18;54.08;;;3.30;99.90;;;;;;2077402;28;20014;-71
2024/02/28 03:38:24;;;;;;;117.43;55.58;;;3.30;99.90;;;;;;2076466;28;20025;-73
2024/02/28 03:39:25;;;;;;;118.90;54.30;;;3.40;99.90;;;;;;2077824;28;20092;-72
2024/02/28 03:40:25;;;;;;;111.30;52.15;;;3.40;99.90;;;;;;2076373;28;20386;-71
2024/02/28 03:41:26;;;;;;;116.85;54.90;;;3.40;99.90;;;;;;2075770;28;20025;-71
2024/02/28 03:42:26;;;;;;;119.47;55.00;;;3.40;99.90;;;;;;2076275;28;20484;-72
2024/02/28 03:43:27;;;;;;;118.68;54.33;;;3.40;99.90;;;;;;2074954;28;20108;-70
2024/02/28 03:44:27;;;;;;;114.07;55.75;;;3.40;99.90;;;;;;2077565;28;20081;-74
2024/02/28 03:45:32;;;;;;;109.97;54.88;;;3.50;99.90;;;;;;2076113;28;20036;-72
2024/02/28 03:46:32;;;;;;;121.50;56.00;;;3.50;99.90;;;;;;2073942;28;20091;-71
2024/02/28 03:47:32;;;;;;;117.40;57.33;;;3.50;99.90;;;;;;2076509;28;20112;-71
2024/02/28 03:48:33;;;;;;;130.82;58.55;;;3.50;99.90;;;;;;2072086;28;20021;-71
2024/02/28 03:49:33;;;;;;;121.57;54.83;;;3.50;99.90;;;;;;2071622;28;20037;-72
2024/02/28 03:50:34;;;;;;;141.55;57.78;;;3.60;99.90;;;;;;2076061;28;20041;-72
2024/02/28 03:51:41;;;;;;;137.80;59.03;;;3.60;99.90;;;;;;2066473;28;20026;-71
2024/02/28 03:52:41;;;;;;;113.88;55.38;;;3.60;99.90;;;;;;2071235;28;20030;-72
2024/02/28 03:53:42;;;;;;;117.18;56.95;;;3.60;99.90;;;;;;2077258;28;20057;-71
2024/02/28 03:54:44;;;;;;;116.95;57.05;;;3.60;99.90;;;;;;2077634;28;20377;-72
2024/02/28 03:55:44;;;;;;;105.07;52.60;;;3.70;99.90;;;;;;2080356;28;20025;-72
2024/02/28 03:56:45;;;;;;;121.32;56.85;;;3.70;99.90;;;;;;2077111;28;20029;-74
2024/02/28 03:57:51;;;;;;;123.93;55.97;;;3.70;99.90;;;;;;2078734;28;20533;-72
2024/02/28 03:58:52;;;;;;;114.00;54.60;;;3.70;99.90;;;;;;2067052;28;20018;-72
2024/02/28 03:59:53;;;;;;;123.53;56.42;;;3.70;99.90;;;;;;2067611;28;20031;-71
2024/02/28 04:00:54;;;;;;;117.18;56.25;;;3.70;99.90;;;;;;2078753;28;20033;-69
2024/02/28 04:01:54;;;;;;;115.35;55.97;;;3.70;99.90;;;;;;2075084;28;20529;-71
2024/02/28 04:02:55;;;;;;;127.90;57.40;;;3.80;99.90;;;;;;2075140;28;20073;-71
2024/02/28 04:03:55;;;;;;;142.02;58.85;;;3.80;99.90;;;;;;2077944;28;20033;-71
2024/02/28 04:04:56;;;;;;;130.27;57.53;;;3.80;99.90;;;;;;2077314;28;20509;-74
2024/02/28 04:05:57;;;;;;;130.30;58.10;;;3.80;99.90;;;;;;2076056;28;20108;-72
2024/02/28 04:06:57;;;;;;;125.07;54.58;;;3.80;99.90;;;;;;2077462;28;20036;-72
2024/02/28 04:07:58;;;;;;;131.15;58.08;;;3.90;99.90;;;;;;2076841;28;20569;-72
2024/02/28 04:08:58;;;;;;;132.93;56.08;;;3.90;99.90;;;;;;2074642;28;20026;-72
2024/02/28 04:09:59;;;;;;;125.93;56.15;;;3.90;99.90;;;;;;2077249;28;20040;-72
2024/02/28 04:10:59;;;;;;;138.65;60.90;;;3.90;99.90;;;;;;2074990;28;20109;-74
2024/02/28 04:12:00;;;;;;;136.45;58.60;;;3.90;99.90;;;;;;2075143;28;20164;-71
2024/02/28 04:13:00;;;;;;;139.98;57.90;;;4.00;99.90;;;;;;2075971;28;20030;-72
2024/02/28 04:14:01;;;;;;;135.95;58.35;;;3.90;99.90;;;;;;2074812;28;20026;-69
2024/02/28 04:15:02;;;;;;;134.82;58.13;;;4.00;99.90;;;;;;2071791;28;20026;-69
2024/02/28 04:16:03;;;;;;;130.52;57.92;;;4.00;99.90;;;;;;2071107;28;20040;-71
2024/02/28 04:17:04;;;;;;;134.80;57.95;;;4.00;99.90;;;;;;2077684;28;20032;-72
2024/02/28 04:18:04;;;;;;;136.15;56.10;;;4.00;99.90;;;;;;2079361;28;20026;-71
2024/02/28 04:19:05;;;;;;;134.88;56.58;;;4.00;99.90;;;;;;2075248;28;20037;-72
2024/02/28 04:20:12;;;;;;;122.57;56.88;;;4.00;99.90;;;;;;2075770;28;20029;-71
2024/02/28 04:21:13;;;;;;;134.88;58.83;;;4.10;99.90;;;;;;2073855;28;20037;-71
2024/02/28 04:22:13;;;;;;;136.25;58.65;;;4.10;99.90;;;;;;2075380;28;20062;-71
2024/02/28 04:23:14;;;;;;;134.45;61.00;;;4.10;99.90;;;;;;2077221;28;20034;-71
2024/02/28 04:24:14;;;;;;;122.13;57.85;;;4.10;99.90;;;;;;2075880;28;20128;-71
2024/02/28 04:25:15;;;;;;;141.45;60.78;;;4.10;99.90;;;;;;2077903;28;20033;-71
2024/02/28 04:26:15;;;;;;;141.00;59.70;;;4.10;99.90;;;;;;2075074;28;20049;-71
2024/02/28 04:27:16;;;;;;;131.75;58.30;;;4.20;99.90;;;;;;2077140;28;20037;-71
2024/02/28 04:28:17;;;;;;;123.32;57.60;;;4.20;99.90;;;;;;2078058;28;20037;-72
2024/02/28 04:29:17;;;;;;;141.32;60.03;;;4.20;99.90;;;;;;2077323;28;20226;-71
2024/02/28 04:30:18;;;;;;;137.18;60.95;;;4.20;99.90;;;;;;2076213;28;20459;-71
2024/02/28 04:31:18;;;;;;;121.15;58.53;;;4.20;99.90;;;;;;2077252;28;20017;-72
2024/02/28 04:32:19;;;;;;;131.90;60.03;;;4.20;99.90;;;;;;2077596;28;20092;-72
2024/02/28 04:33:19;;;;;;;135.45;61.28;;;4.20;99.90;;;;;;2077382;28;20029;-72
2024/02/28 04:34:20;;;;;;;145.75;62.30;;;4.30;99.90;;;;;;2075263;28;20084;-71
2024/02/28 04:35:20;;;;;;;124.88;60.83;;;4.30;99.90;;;;;;2074872;28;20037;-71
2024/02/28 04:36:21;;;;;;;154.95;61.20;;;4.30;99.90;;;;;;2075426;28;20049;-71
2024/02/28 04:37:22;;;;;;;134.38;62.13;;;4.30;99.90;;;;;;2076199;28;20095;-71
2024/02/28 04:38:22;;;;;;;130.68;60.45;;;4.30;99.90;;;;;;2076280;28;20014;-71
2024/02/28 04:39:23;;;;;;;142.07;64.13;;;4.30;99.90;;;;;;2076025;28;20053;-71
2024/02/28 04:40:23;;;;;;;131.40;61.33;;;4.30;99.90;;;;;;2075715;28;20081;-74
2024/02/28 04:41:24;;;;;;;135.50;63.13;;;4.40;99.90;;;;;;2075304;28;20470;-74
2024/02/28 04:42:24;;;;;;;133.70;61.30;;;4.40;99.90;;;;;;2076781;28;20454;-71
2024/02/28 04:43:25;;;;;;;127.78;59.97;;;4.40;99.90;;;;;;2076424;28;20022;-70
2024/02/28 04:44:25;;;;;;;128.30;59.88;;;4.40;99.90;;;;;;2073271;28;20241;-72
2024/02/28 04:45:26;;;;;;;134.27;62.78;;;4.40;99.90;;;;;;2076432;28;20021;-71
2024/02/28 04:46:26;;;;;;;131.25;61.67;;;4.40;99.90;;;;;;2076903;28;20105;-71
2024/02/28 04:47:27;;;;;;;125.43;61.08;;;4.40;99.90;;;;;;2078103;28;20029;-71
2024/02/28 04:48:27;;;;;;;126.28;61.17;;;4.40;99.90;;;;;;2078241;28;20362;-72
2024/02/28 04:49:28;;;;;;;136.57;63.47;;;4.40;99.90;;;;;;2074487;28;20147;-71
2024/02/28 04:50:28;;;;;;;138.90;63.50;;;4.50;99.90;;;;;;2069940;28;20018;-71
2024/02/28 04:51:29;;;;;;;140.02;64.72;;;4.50;99.90;;;;;;2071644;28;20021;-71
2024/02/28 04:52:29;;;;;;;133.63;63.78;;;4.50;99.90;;;;;;2075655;28;20022;-71
2024/02/28 04:53:30;;;;;;;136.65;62.63;;;4.50;99.90;;;;;;2077350;28;20021;-71
2024/02/28 04:54:31;;;;;;;134.05;61.28;;;4.50;99.90;;;;;;2074468;28;20152;-70
2024/02/28 04:55:31;;;;;;;128.73;61.00;;;4.50;99.90;;;;;;2078683;28;20021;-72
2024/02/28 04:56:32;;;;;;;137.43;62.53;;;4.50;99.90;;;;;;2075828;28;20040;-71
2024/02/28 04:57:32;;;;;;;137.55;65.57;;;4.50;99.90;;;;;;2075432;28;20021;-71
2024/02/28 04:58:33;;;;;;;130.85;62.72;;;4.60;99.90;;;;;;2075889;28;20025;-70
2024/02/28 04:59:34;;;;;;;126.15;61.00;;;4.60;99.90;;;;;;2075700;28;20379;-72
2024/02/28 05:00:34;;;;;;;132.63;63.33;;;4.60;99.90;;;;;;2069598;28;20651;-71
2024/02/28 05:01:35;;;;;;;145.35;64.05;;;4.60;99.90;;;;;;2071527;28;20053;-71
2024/02/28 05:02:35;;;;;;;131.18;62.97;;;4.60;99.90;;;;;;2077122;28;20033;-71
2024/02/28 05:03:36;;;;;;;139.85;66.03;;;4.60;99.90;;;;;;2077088;28;20053;-71
2024/02/28 05:04:36;;;;;;;137.88;63.75;;;4.60;99.90;;;;;;2074916;28;20063;-72
2024/02/28 05:05:37;;;;;;;138.30;65.13;;;4.60;99.90;;;;;;2074152;28;20033;-73
2024/02/28 05:06:37;;;;;;;136.98;66.38;;;4.60;99.90;;;;;;2069383;28;20038;-71
2024/02/28 05:07:38;;;;;;;138.00;63.13;;;4.70;99.90;;;;;;2067567;28;20541;-70
2024/02/28 05:08:38;;;;;;;129.85;61.70;;;4.70;99.90;;;;;;2075789;28;20040;-71
2024/02/28 05:09:39;;;;;;;133.68;66.15;;;4.70;99.90;;;;;;2072797;28;20052;-72
2024/02/28 05:10:40;;;;;;;140.75;66.72;;;4.70;99.90;;;;;;2075734;28;20029;-71
2024/02/28 05:11:41;;;;;;;123.25;61.08;;;4.70;99.90;;;;;;2077639;28;20730;-73